createdAt,value
2022-09-06T00:00:41.457Z,0.00
2022-09-06T00:01:41.471Z,0.00
2022-09-06T00:02:42.611Z,0.00
2022-09-06T00:03:41.536Z,0.00
2022-09-06T00:04:41.431Z,0.00
2022-09-06T00:05:41.410Z,0.00
2022-09-06T00:06:41.410Z,0.00
2022-09-06T00:07:41.418Z,0.00
2022-09-06T00:08:41.449Z,0.00
2022-09-06T00:09:41.370Z,0.00
2022-09-06T00:10:41.378Z,0.00
2022-09-06T00:11:41.398Z,0.00
2022-09-06T00:12:41.373Z,0.00
2022-09-06T00:13:41.368Z,0.00
2022-09-06T00:14:41.362Z,0.00
2022-09-06T00:15:41.442Z,0.00
2022-09-06T00:16:41.348Z,0.00
2022-09-06T00:17:41.321Z,0.00
2022-09-06T00:18:41.318Z,0.00
2022-09-06T00:19:41.296Z,0.00
2022-09-06T00:20:41.304Z,0.00
2022-09-06T00:21:41.324Z,0.00
2022-09-06T00:22:41.275Z,0.00
2022-09-06T00:23:41.298Z,0.00
2022-09-06T00:24:41.273Z,0.00
2022-09-06T00:25:41.255Z,0.00
2022-09-06T00:26:41.267Z,0.00
2022-09-06T00:27:41.329Z,0.00
2022-09-06T00:28:41.286Z,0.00
2022-09-06T00:29:41.226Z,0.00
2022-09-06T00:30:41.287Z,0.00
2022-09-06T00:31:41.218Z,0.00
2022-09-06T00:32:41.254Z,0.00
2022-09-06T00:33:41.228Z,0.00
2022-09-06T00:34:41.227Z,0.00
2022-09-06T00:35:41.211Z,0.00
2022-09-06T00:36:41.220Z,0.00
2022-09-06T00:37:41.137Z,0.00
2022-09-06T00:38:41.172Z,0.00
2022-09-06T00:39:41.185Z,0.00
2022-09-06T00:40:41.147Z,0.00
2022-09-06T00:41:41.141Z,0.00
2022-09-06T00:42:41.133Z,0.00
2022-09-06T00:43:41.143Z,0.00
2022-09-06T00:44:41.099Z,0.00
2022-09-06T00:45:41.133Z,0.00
2022-09-06T00:46:41.127Z,0.00
2022-09-06T00:47:41.107Z,0.00
2022-09-06T00:48:41.072Z,0.00
2022-09-06T00:49:41.203Z,0.00
2022-09-06T00:50:41.749Z,0.00
2022-09-06T00:51:41.051Z,0.00
2022-09-06T00:52:41.043Z,0.00
2022-09-06T00:53:41.021Z,0.00
2022-09-06T00:54:41.054Z,0.00
2022-09-06T00:55:41.057Z,0.00
2022-09-06T00:56:41.041Z,0.00
2022-09-06T00:57:41.025Z,0.00
2022-09-06T00:58:41.008Z,0.00
2022-09-06T00:59:41.036Z,0.00
2022-09-06T01:00:41.024Z,0.00
2022-09-06T01:01:42.036Z,0.00
2022-09-06T01:02:41.162Z,0.00
2022-09-06T01:03:40.971Z,0.00
2022-09-06T01:04:41.790Z,0.00
2022-09-06T01:05:41.747Z,0.00
2022-09-06T01:06:40.920Z,0.00
2022-09-06T01:07:40.929Z,0.00
2022-09-06T01:08:41.088Z,0.00
2022-09-06T01:09:40.954Z,0.00
2022-09-06T01:10:40.936Z,0.00
2022-09-06T01:11:40.899Z,0.00
2022-09-06T01:12:40.920Z,0.00
2022-09-06T01:13:40.902Z,0.00
2022-09-06T01:14:40.951Z,0.00
2022-09-06T01:15:40.967Z,0.00
2022-09-06T01:16:40.904Z,0.00
2022-09-06T01:17:40.907Z,0.00
2022-09-06T01:18:40.861Z,0.00
2022-09-06T01:19:40.858Z,0.00
2022-09-06T01:20:40.894Z,0.00
2022-09-06T01:21:40.852Z,0.00
2022-09-06T01:22:40.816Z,0.00
2022-09-06T01:23:40.806Z,0.00
2022-09-06T01:24:40.806Z,0.00
2022-09-06T01:25:40.845Z,0.00
2022-09-06T01:26:40.878Z,0.00
2022-09-06T01:27:40.808Z,0.00
2022-09-06T01:28:40.787Z,0.00
2022-09-06T01:29:40.782Z,0.00
2022-09-06T01:30:40.860Z,0.00
2022-09-06T01:31:40.758Z,0.00
2022-09-06T01:32:40.734Z,0.00
2022-09-06T01:33:40.728Z,0.00
2022-09-06T01:34:40.715Z,0.00
2022-09-06T01:35:40.748Z,0.00
2022-09-06T01:36:54.398Z,0.00
2022-09-06T01:37:42.740Z,0.00
2022-09-06T01:38:40.783Z,0.00
2022-09-06T01:39:40.773Z,0.00
2022-09-06T01:40:40.680Z,0.00
2022-09-06T01:41:40.732Z,0.00
2022-09-06T01:42:40.688Z,0.00
2022-09-06T01:43:40.688Z,0.00
2022-09-06T01:44:40.679Z,0.00
2022-09-06T02:03:07.984Z,0.00
2022-09-06T02:04:08.114Z,0.00
2022-09-06T02:05:09.164Z,0.00
2022-09-06T02:06:09.121Z,0.00
2022-09-06T02:07:09.706Z,0.00
2022-09-06T02:08:09.091Z,0.00
2022-09-06T02:09:09.092Z,0.00
2022-09-06T02:10:09.711Z,0.00
2022-09-06T02:11:09.125Z,0.00
2022-09-06T02:12:09.138Z,0.00
2022-09-06T02:13:09.179Z,0.00
2022-09-06T02:14:09.065Z,0.00
2022-09-06T02:15:09.071Z,0.00
2022-09-06T02:16:09.037Z,0.00
2022-09-06T02:17:09.138Z,0.00
2022-09-06T02:18:09.025Z,0.00
2022-09-06T02:19:09.038Z,0.00
2022-09-06T02:20:09.623Z,0.00
2022-09-06T02:21:09.128Z,0.00
2022-09-06T02:22:09.013Z,0.00
2022-09-06T02:23:09.002Z,0.00
2022-09-06T02:24:43.157Z,0.00
2022-09-06T02:25:09.027Z,0.00
2022-09-06T02:26:09.077Z,0.00
2022-09-06T02:27:08.968Z,0.00
2022-09-06T02:28:08.995Z,0.00
2022-09-06T02:29:09.022Z,0.00
2022-09-06T02:30:09.011Z,0.00
2022-09-06T02:31:09.104Z,0.00
2022-09-06T02:32:08.970Z,0.00
2022-09-06T02:33:08.952Z,0.00
2022-09-06T02:34:08.961Z,0.00
2022-09-06T02:35:08.978Z,0.00
2022-09-06T02:36:09.033Z,0.00
2022-09-06T02:37:08.912Z,0.00
2022-09-06T02:38:08.904Z,0.00
2022-09-06T02:39:09.914Z,0.00
2022-09-06T02:40:08.965Z,0.00
2022-09-06T02:41:08.906Z,0.00
2022-09-06T02:42:08.928Z,0.00
2022-09-06T02:43:08.930Z,0.00
2022-09-06T02:44:08.879Z,0.00
2022-09-06T02:45:08.946Z,0.00
2022-09-06T02:46:08.965Z,0.00
2022-09-06T02:47:08.962Z,0.00
2022-09-06T02:48:08.869Z,0.00
2022-09-06T02:49:08.882Z,0.00
2022-09-06T02:50:08.860Z,0.00
2022-09-06T02:51:08.794Z,0.00
2022-09-06T02:52:08.827Z,0.00
2022-09-06T02:53:08.808Z,0.00
2022-09-06T02:54:08.812Z,0.00
2022-09-06T02:55:08.801Z,0.00
2022-09-06T02:56:08.773Z,0.00
2022-09-06T02:57:08.811Z,0.00
2022-09-06T02:58:08.763Z,0.00
2022-09-06T02:59:08.789Z,0.00
2022-09-06T03:00:08.793Z,0.00
2022-09-06T03:01:08.771Z,0.00
2022-09-06T03:02:08.769Z,0.00
2022-09-06T03:03:08.752Z,0.00
2022-09-06T03:04:08.750Z,0.00
2022-09-06T03:05:08.750Z,0.00
2022-09-06T03:06:08.682Z,0.00
2022-09-06T03:07:08.670Z,0.00
2022-09-06T03:08:08.686Z,0.00
2022-09-06T03:09:08.767Z,0.00
2022-09-06T03:10:08.701Z,0.00
2022-09-06T03:11:08.660Z,0.00
2022-09-06T03:12:08.624Z,0.00
2022-09-06T03:13:08.611Z,0.00
2022-09-06T03:14:08.650Z,0.00
2022-09-06T03:15:08.690Z,0.00
2022-09-06T03:16:08.637Z,0.00
2022-09-06T03:17:08.649Z,0.00
2022-09-06T03:18:08.619Z,0.00
2022-09-06T03:19:08.619Z,0.00
2022-09-06T03:20:08.601Z,0.00
2022-09-06T03:21:08.580Z,0.00
2022-09-06T03:22:08.622Z,0.00
2022-09-06T03:23:08.591Z,0.00
2022-09-06T03:24:08.555Z,0.00
2022-09-06T03:25:08.519Z,0.00
2022-09-06T03:26:08.511Z,0.00
2022-09-06T03:27:08.542Z,0.00
2022-09-06T03:28:08.536Z,0.00
2022-09-06T03:29:08.531Z,0.00
2022-09-06T03:30:08.527Z,0.00
2022-09-06T03:31:08.612Z,0.00
2022-09-06T03:32:08.472Z,0.00
2022-09-06T03:33:08.525Z,0.00
2022-09-06T03:34:11.133Z,0.00
2022-09-06T03:35:09.468Z,0.00
2022-09-06T03:36:08.485Z,0.00
2022-09-06T03:37:08.446Z,0.00
2022-09-06T03:38:09.469Z,0.00
2022-09-06T03:39:08.456Z,0.00
2022-09-06T03:40:08.480Z,0.00
2022-09-06T03:41:08.408Z,0.00
2022-09-06T03:42:08.457Z,0.00
2022-09-06T03:43:08.432Z,0.00
2022-09-06T03:44:08.424Z,0.00
2022-09-06T03:45:08.414Z,0.00
2022-09-06T03:46:08.401Z,0.00
2022-09-06T03:47:08.358Z,0.00
2022-09-06T04:02:35.050Z,0.00
2022-09-06T04:03:34.969Z,0.00
2022-09-06T04:04:34.972Z,0.00
2022-09-06T04:05:34.957Z,0.00
2022-09-06T04:06:34.972Z,0.00
2022-09-06T04:07:34.997Z,0.00
2022-09-06T04:08:36.081Z,0.00
2022-09-06T04:09:36.103Z,0.00
2022-09-06T04:10:36.070Z,0.00
2022-09-06T04:11:36.126Z,0.00
2022-09-06T04:12:36.095Z,4.00
2022-09-06T04:13:36.094Z,4.00
2022-09-06T04:14:36.066Z,0.00
2022-09-06T04:15:36.051Z,0.00
2022-09-06T04:16:36.081Z,4.00
2022-09-06T04:17:36.079Z,4.00
2022-09-06T04:18:36.018Z,4.00
2022-09-06T04:19:36.023Z,4.00
2022-09-06T04:20:36.030Z,4.00
2022-09-06T04:21:36.025Z,4.00
2022-09-06T04:22:35.989Z,4.00
2022-09-06T04:23:39.783Z,4.00
2022-09-06T04:24:36.953Z,8.00
2022-09-06T04:25:36.028Z,8.00
2022-09-06T04:26:36.725Z,8.00
2022-09-06T04:27:36.533Z,8.00
2022-09-06T04:28:35.956Z,12.00
2022-09-06T04:29:35.961Z,16.00
2022-09-06T04:30:36.063Z,16.00
2022-09-06T04:31:35.929Z,20.00
2022-09-06T04:32:35.886Z,16.00
2022-09-06T04:33:35.920Z,20.00
2022-09-06T04:34:35.895Z,24.00
2022-09-06T04:35:35.913Z,24.00
2022-09-06T04:36:35.893Z,28.00
2022-09-06T04:37:35.900Z,36.00
2022-09-06T04:38:35.904Z,40.00
2022-09-06T04:39:35.953Z,48.00
2022-09-06T04:40:35.954Z,56.00
2022-09-06T04:41:35.913Z,64.00
2022-09-06T04:42:35.862Z,64.00
2022-09-06T04:43:35.825Z,60.00
2022-09-06T04:44:35.910Z,60.00
2022-09-06T04:45:35.944Z,64.00
2022-09-06T04:46:35.824Z,68.00
2022-09-06T04:47:35.798Z,72.00
2022-09-06T04:48:35.819Z,80.00
2022-09-06T04:49:35.799Z,84.00
2022-09-06T04:50:35.814Z,96.00
2022-09-06T04:51:35.856Z,112.00
2022-09-06T04:52:35.800Z,124.00
2022-09-06T04:53:35.806Z,140.00
2022-09-06T04:54:35.826Z,156.00
2022-09-06T04:55:35.841Z,168.00
2022-09-06T04:56:35.859Z,180.00
2022-09-06T04:57:38.183Z,192.00
2022-09-06T04:58:36.764Z,200.00
2022-09-06T04:59:35.789Z,212.00
2022-09-06T05:00:35.692Z,220.00
2022-09-06T05:01:35.832Z,232.00
2022-09-06T05:02:35.794Z,244.00
2022-09-06T05:03:35.817Z,252.00
2022-09-06T05:04:35.724Z,264.00
2022-09-06T05:05:35.806Z,276.00
2022-09-06T05:06:35.731Z,292.00
2022-09-06T05:07:35.805Z,312.00
2022-09-06T05:08:35.700Z,328.00
2022-09-06T05:09:35.788Z,352.00
2022-09-06T05:10:35.749Z,376.00
2022-09-06T05:11:35.727Z,404.00
2022-09-06T05:12:35.682Z,424.00
2022-09-06T05:13:35.625Z,444.00
2022-09-06T05:14:35.649Z,476.00
2022-09-06T05:15:35.661Z,504.00
2022-09-06T05:16:35.658Z,532.00
2022-09-06T05:17:35.621Z,564.00
2022-09-06T05:18:35.633Z,596.00
2022-09-06T05:19:35.639Z,632.00
2022-09-06T05:20:35.560Z,660.00
2022-09-06T05:21:35.594Z,688.00
2022-09-06T05:22:35.555Z,708.00
2022-09-06T05:23:36.227Z,712.00
2022-09-06T05:24:36.610Z,712.00
2022-09-06T05:25:35.547Z,704.00
2022-09-06T05:26:35.517Z,696.00
2022-09-06T05:27:35.528Z,692.00
2022-09-06T05:28:35.549Z,692.00
2022-09-06T05:29:35.545Z,700.00
2022-09-06T05:30:35.527Z,732.00
2022-09-06T05:31:35.591Z,776.00
2022-09-06T05:32:35.462Z,824.00
2022-09-06T05:33:35.511Z,904.00
2022-09-06T05:34:35.524Z,1020.00
2022-09-06T05:35:35.536Z,1152.00
2022-09-06T05:36:35.411Z,1256.00
2022-09-06T05:37:35.431Z,1396.00
2022-09-06T05:38:35.447Z,1540.00
2022-09-06T05:39:35.483Z,1692.00
2022-09-06T05:40:35.432Z,1820.00
2022-09-06T05:41:35.442Z,1944.00
2022-09-06T05:42:35.441Z,2044.00
2022-09-06T05:43:36.733Z,2156.00
2022-09-06T05:44:35.426Z,2160.00
2022-09-06T05:45:35.415Z,2176.00
2022-09-06T05:46:35.415Z,2180.00
2022-09-06T05:47:35.407Z,2204.00
2022-09-06T05:48:37.217Z,2208.00
2022-09-06T05:49:36.342Z,2196.00
2022-09-06T05:50:35.405Z,2204.00
2022-09-06T05:51:36.246Z,2200.00
2022-09-06T05:52:35.376Z,2216.00
2022-09-06T05:53:35.338Z,2336.00
2022-09-06T05:54:35.443Z,5224.00
2022-09-06T05:55:35.283Z,2504.00
2022-09-06T05:56:35.383Z,2316.00
2022-09-06T05:57:35.356Z,2284.00
2022-09-06T05:58:35.277Z,2276.00
2022-09-06T05:59:35.287Z,2272.00
2022-09-06T06:00:35.320Z,2284.00
2022-09-06T06:01:35.395Z,2308.00
2022-09-06T06:02:35.327Z,2336.00
2022-09-06T06:03:35.259Z,2368.00
2022-09-06T06:04:35.213Z,2392.00
2022-09-06T06:05:35.365Z,2408.00
2022-09-06T06:06:35.240Z,2396.00
2022-09-06T06:07:35.182Z,2408.00
2022-09-06T06:08:35.211Z,2440.00
2022-09-06T06:09:35.202Z,2492.00
2022-09-06T06:10:38.443Z,2560.00
2022-09-06T06:11:36.208Z,2648.00
2022-09-06T06:12:35.180Z,2744.00
2022-09-06T06:13:35.154Z,2808.00
2022-09-06T06:14:35.214Z,2912.00
2022-09-06T06:15:35.143Z,2988.00
2022-09-06T06:16:35.153Z,3088.00
2022-09-06T06:17:35.116Z,3180.00
2022-09-06T06:18:35.110Z,3232.00
2022-09-06T06:19:35.147Z,3280.00
2022-09-06T06:20:35.134Z,3352.00
2022-09-06T06:21:35.107Z,3404.00
2022-09-06T06:22:35.093Z,3480.00
2022-09-06T06:23:35.127Z,3608.00
2022-09-06T06:24:35.038Z,3628.00
2022-09-06T06:25:35.046Z,3984.00
2022-09-06T06:26:35.058Z,6280.00
2022-09-06T06:27:35.083Z,6388.00
2022-09-06T06:28:35.046Z,4308.00
2022-09-06T06:29:35.041Z,4076.00
2022-09-06T06:30:35.039Z,3892.00
2022-09-06T06:31:35.117Z,3612.00
2022-09-06T06:32:35.011Z,3388.00
2022-09-06T06:33:35.002Z,3212.00
2022-09-06T06:34:34.973Z,3032.00
2022-09-06T06:35:38.303Z,2860.00
2022-09-06T06:36:37.060Z,2708.00
2022-09-06T06:37:34.967Z,2604.00
2022-09-06T06:38:34.950Z,2504.00
2022-09-06T06:39:34.984Z,2452.00
2022-09-06T06:40:34.983Z,2404.00
2022-09-06T06:41:34.944Z,2392.00
2022-09-06T06:43:09.157Z,2360.00
2022-09-06T06:43:34.870Z,2348.00
2022-09-06T06:44:34.899Z,2360.00
2022-09-06T06:45:34.930Z,2328.00
2022-09-06T06:46:34.884Z,2308.00
2022-09-06T06:47:34.890Z,2320.00
2022-09-06T06:48:34.872Z,2320.00
2022-09-06T06:49:34.855Z,2344.00
2022-09-06T06:50:34.855Z,2388.00
2022-09-06T06:51:35.382Z,2416.00
2022-09-06T06:52:34.849Z,2484.00
2022-09-06T06:53:34.873Z,2576.00
2022-09-06T06:54:34.857Z,2704.00
2022-09-06T06:55:34.824Z,2900.00
2022-09-06T06:56:34.869Z,3168.00
2022-09-06T06:57:34.806Z,3472.00
2022-09-06T06:58:34.804Z,3728.00
2022-09-06T06:59:34.803Z,3848.00
2022-09-06T07:00:34.855Z,3868.00
2022-09-06T07:01:34.949Z,4016.00
2022-09-06T07:02:34.766Z,4340.00
2022-09-06T07:03:34.777Z,4892.00
2022-09-06T07:04:34.788Z,6088.00
2022-09-06T07:07:39.495Z,5708.00
2022-09-06T07:08:34.735Z,6132.00
2022-09-06T07:10:36.730Z,5388.00
2022-09-06T07:11:34.697Z,4636.00
2022-09-06T07:12:34.703Z,4260.00
2022-09-06T07:13:34.674Z,3900.00
2022-09-06T07:14:34.737Z,3660.00
2022-09-06T07:15:34.679Z,3376.00
2022-09-06T07:16:34.794Z,3252.00
2022-09-06T07:17:34.686Z,3180.00
2022-09-06T07:18:34.652Z,3188.00
2022-09-06T07:22:35.628Z,3736.00
2022-09-06T07:24:36.636Z,4452.00
2022-09-06T07:26:08.708Z,5012.00
2022-09-06T07:26:34.658Z,5744.00
2022-09-06T07:27:50.463Z,6720.00
2022-09-06T07:28:36.551Z,8000.00
2022-09-06T07:29:34.584Z,10540.00
2022-09-06T07:30:34.626Z,12292.00
2022-09-06T07:32:36.553Z,16576.00
2022-09-06T07:33:34.542Z,14592.00
2022-09-06T07:34:35.515Z,17728.00
2022-09-06T07:35:34.564Z,17568.00
2022-09-06T07:36:34.504Z,28096.00
2022-09-06T07:37:34.544Z,30432.00
2022-09-06T07:38:34.527Z,26144.00
2022-09-06T07:39:34.523Z,12624.00
2022-09-06T07:40:34.531Z,11716.00
2022-09-06T07:41:34.477Z,11236.00
2022-09-06T07:42:36.413Z,11132.00
2022-09-06T07:43:35.483Z,10608.00
2022-09-06T07:44:34.461Z,10372.00
2022-09-06T07:45:34.493Z,10192.00
2022-09-06T07:46:35.518Z,9856.00
2022-09-06T07:48:36.447Z,9608.00
2022-09-06T07:49:34.963Z,9648.00
2022-09-06T07:50:50.615Z,9756.00
2022-09-06T07:51:36.425Z,10064.00
2022-09-06T07:53:36.765Z,12648.00
2022-09-06T07:54:34.495Z,15532.00
2022-09-06T07:55:34.438Z,20512.00
2022-09-06T07:56:34.411Z,14452.00
2022-09-06T07:57:34.407Z,12732.00
2022-09-06T07:58:34.408Z,13464.00
2022-09-06T07:59:34.337Z,24736.00
2022-09-06T08:00:34.492Z,13784.00
2022-09-06T08:01:34.449Z,24672.00
2022-09-06T08:02:34.388Z,42560.00
2022-09-06T08:03:34.347Z,29920.00
2022-09-06T08:04:34.312Z,74336.00
2022-09-06T08:09:36.298Z,87232.00
2022-09-06T08:10:34.306Z,86496.00
2022-09-06T08:11:34.309Z,19744.00
2022-09-06T08:12:34.276Z,17024.00
2022-09-06T08:13:34.252Z,14440.00
2022-09-06T08:14:34.255Z,12440.00
2022-09-06T08:15:34.256Z,11180.00
2022-09-06T08:16:34.264Z,10228.00
2022-09-06T08:17:34.230Z,9436.00
2022-09-06T08:18:34.210Z,8756.00
2022-09-06T08:19:34.215Z,8200.00
2022-09-06T08:20:34.210Z,7960.00
2022-09-06T08:21:34.170Z,7840.00
2022-09-06T08:22:35.406Z,7828.00
2022-09-06T08:23:34.187Z,7880.00
2022-09-06T08:24:35.102Z,7908.00
2022-09-06T08:26:07.737Z,7976.00
2022-09-06T08:26:34.283Z,8076.00
2022-09-06T08:27:34.814Z,8232.00
2022-09-06T08:28:34.667Z,8504.00
2022-09-06T08:29:34.222Z,9064.00
2022-09-06T08:30:34.182Z,9796.00
2022-09-06T08:31:34.318Z,10700.00
2022-09-06T08:32:34.276Z,10980.00
2022-09-06T08:33:34.902Z,11728.00
2022-09-06T08:34:34.109Z,14300.00
2022-09-06T08:35:34.051Z,13684.00
2022-09-06T08:36:34.147Z,13108.00
2022-09-06T08:37:34.064Z,13172.00
2022-09-06T08:38:34.539Z,13456.00
2022-09-06T08:39:34.167Z,13416.00
2022-09-06T08:40:34.076Z,13916.00
2022-09-06T08:41:34.068Z,19136.00
2022-09-06T08:42:34.120Z,34592.00
2022-09-06T08:43:34.882Z,17312.00
2022-09-06T08:45:36.092Z,19136.00
2022-09-06T08:46:34.078Z,44160.00
2022-09-06T08:47:34.070Z,59168.00
2022-09-06T08:48:34.993Z,78528.00
2022-09-06T08:49:34.666Z,45120.00
2022-09-06T08:50:33.981Z,27136.00
2022-09-06T08:51:38.387Z,23328.00
2022-09-06T08:52:34.977Z,21952.00
2022-09-06T08:53:33.953Z,79104.00
2022-09-06T08:54:34.836Z,88384.00
2022-09-06T08:55:35.876Z,93760.00
2022-09-06T08:56:35.894Z,64928.00
2022-09-06T08:57:38.240Z,34720.00
2022-09-06T08:58:38.683Z,23008.00
2022-09-06T08:59:33.967Z,31872.00
2022-09-06T09:00:35.694Z,34912.00
2022-09-06T09:01:34.041Z,35968.00
2022-09-06T09:02:33.949Z,37792.00
2022-09-06T09:03:33.890Z,33600.00
2022-09-06T09:04:33.918Z,35712.00
2022-09-06T09:05:33.831Z,36096.00
2022-09-06T09:06:33.859Z,34656.00
2022-09-06T09:07:33.834Z,34464.00
2022-09-06T09:08:33.862Z,33344.00
2022-09-06T09:09:33.917Z,32032.00
2022-09-06T09:10:33.836Z,30912.00
2022-09-06T09:11:33.871Z,30784.00
2022-09-06T09:12:33.827Z,30912.00
2022-09-06T09:13:34.896Z,30432.00
2022-09-06T09:14:33.945Z,29856.00
2022-09-06T09:15:39.575Z,29792.00
2022-09-06T09:16:35.928Z,29120.00
2022-09-06T09:17:33.868Z,28416.00
2022-09-06T09:18:34.410Z,28256.00
2022-09-06T09:19:33.846Z,28000.00
2022-09-06T09:20:33.819Z,27040.00
2022-09-06T09:21:33.741Z,27392.00
2022-09-06T09:22:33.819Z,27616.00
2022-09-06T09:23:33.718Z,26528.00
2022-09-06T09:24:33.781Z,25952.00
2022-09-06T09:25:33.707Z,25632.00
2022-09-06T09:26:34.725Z,25120.00
2022-09-06T09:27:33.712Z,24960.00
2022-09-06T09:28:33.717Z,25632.00
2022-09-06T09:29:36.409Z,26080.00
2022-09-06T09:30:50.279Z,26368.00
2022-09-06T09:31:35.803Z,26752.00
2022-09-06T09:32:33.719Z,27264.00
2022-09-06T09:33:33.778Z,27584.00
2022-09-06T09:34:33.873Z,28096.00
2022-09-06T09:35:34.546Z,29152.00
2022-09-06T09:36:33.667Z,31072.00
2022-09-06T09:37:51.062Z,33088.00
2022-09-06T09:38:35.633Z,35136.00
2022-09-06T09:39:33.749Z,36992.00
2022-09-06T09:40:33.664Z,40128.00
2022-09-06T09:41:33.651Z,44000.00
2022-09-06T09:42:33.606Z,46560.00
2022-09-06T09:43:33.651Z,48160.00
2022-09-06T09:44:33.664Z,48416.00
2022-09-06T09:45:33.665Z,48032.00
2022-09-06T09:46:33.671Z,46496.00
2022-09-06T09:47:33.608Z,44032.00
2022-09-06T09:48:33.576Z,41600.00
2022-09-06T09:49:33.586Z,37536.00
2022-09-06T09:50:33.561Z,33536.00
2022-09-06T09:51:33.621Z,30400.00
2022-09-06T09:52:33.568Z,27104.00
2022-09-06T09:53:33.642Z,25536.00
2022-09-06T09:54:33.532Z,23328.00
2022-09-06T09:55:33.593Z,21536.00
2022-09-06T09:56:33.563Z,19904.00
2022-09-06T09:57:33.502Z,18432.00
2022-09-06T09:58:33.598Z,17280.00
2022-09-06T09:59:33.499Z,16416.00
2022-09-06T10:00:33.565Z,15752.00
2022-09-06T10:01:33.502Z,15364.00
2022-09-06T10:02:33.485Z,14920.00
2022-09-06T10:03:34.145Z,14700.00
2022-09-06T10:04:48.770Z,14520.00
2022-09-06T10:05:35.501Z,14376.00
2022-09-06T10:07:35.438Z,14032.00
2022-09-06T10:08:33.450Z,13832.00
2022-09-06T10:09:33.427Z,13800.00
2022-09-06T10:10:33.404Z,13716.00
2022-09-06T10:11:33.482Z,13536.00
2022-09-06T10:12:33.708Z,13412.00
2022-09-06T10:13:33.450Z,13288.00
2022-09-06T10:14:33.402Z,13184.00
2022-09-06T10:15:33.451Z,13040.00
2022-09-06T10:16:33.439Z,12896.00
2022-09-06T10:17:33.457Z,13032.00
2022-09-06T10:18:33.426Z,12580.00
2022-09-06T10:19:33.398Z,12572.00
2022-09-06T10:20:33.436Z,12284.00
2022-09-06T10:21:33.351Z,12180.00
2022-09-06T10:22:33.362Z,12080.00
2022-09-06T10:24:35.343Z,11848.00
2022-09-06T10:25:33.305Z,11736.00
2022-09-06T10:26:33.922Z,11624.00
2022-09-06T10:27:33.279Z,11496.00
2022-09-06T10:28:34.308Z,11444.00
2022-09-06T10:29:33.311Z,11288.00
2022-09-06T10:30:33.335Z,11248.00
2022-09-06T10:31:33.330Z,11152.00
2022-09-06T10:32:33.289Z,11072.00
2022-09-06T10:33:33.357Z,10872.00
2022-09-06T10:34:33.294Z,10908.00
2022-09-06T10:35:33.280Z,10796.00
2022-09-06T10:36:33.319Z,10612.00
2022-09-06T10:37:33.287Z,10524.00
2022-09-06T10:38:33.290Z,10488.00
2022-09-06T10:39:33.356Z,10492.00
2022-09-06T10:40:33.241Z,10388.00
2022-09-06T10:41:33.276Z,10308.00
2022-09-06T10:42:33.237Z,9992.00
2022-09-06T10:43:33.187Z,10036.00
2022-09-06T10:44:34.237Z,10052.00
2022-09-06T10:45:33.216Z,9988.00
2022-09-06T10:46:33.360Z,9972.00
2022-09-06T10:47:33.174Z,9920.00
2022-09-06T10:48:33.225Z,9860.00
2022-09-06T10:49:33.208Z,9836.00
2022-09-06T10:50:33.186Z,9796.00
2022-09-06T10:51:33.201Z,9732.00
2022-09-06T10:52:33.212Z,9624.00
2022-09-06T10:53:33.193Z,9664.00
2022-09-06T10:54:33.212Z,9828.00
2022-09-06T10:55:33.120Z,9712.00
2022-09-06T10:56:33.117Z,9652.00
2022-09-06T11:00:33.108Z,9612.00
2022-09-06T11:01:33.140Z,9624.00
2022-09-06T11:02:33.455Z,9644.00
2022-09-06T11:06:34.045Z,9604.00
2022-09-06T11:07:33.066Z,9544.00
2022-09-06T11:08:48.659Z,9516.00
2022-09-06T11:09:35.025Z,9520.00
2022-09-06T11:10:32.999Z,9528.00
2022-09-06T11:11:33.018Z,9364.00
2022-09-06T11:12:33.013Z,9416.00
2022-09-06T11:13:32.988Z,9352.00
2022-09-06T11:14:32.964Z,9484.00
2022-09-06T11:15:33.141Z,9336.00
2022-09-06T11:16:32.977Z,9332.00
2022-09-06T11:17:33.007Z,9512.00
2022-09-06T11:18:32.970Z,9272.00
2022-09-06T11:19:32.988Z,9168.00
2022-09-06T11:20:32.935Z,9128.00
2022-09-06T11:21:32.976Z,9256.00
2022-09-06T11:22:32.940Z,9084.00
2022-09-06T11:23:32.958Z,9024.00
2022-09-06T11:24:32.952Z,9020.00
2022-09-06T11:25:32.909Z,9020.00
2022-09-06T11:26:32.900Z,8952.00
2022-09-06T11:27:32.907Z,8928.00
2022-09-06T11:28:32.891Z,8900.00
2022-09-06T11:29:32.873Z,8920.00
2022-09-06T11:30:32.877Z,8940.00
2022-09-06T11:32:34.920Z,9056.00
2022-09-06T11:33:32.879Z,8880.00
2022-09-06T11:34:32.855Z,8840.00
2022-09-06T11:35:32.832Z,8780.00
2022-09-06T11:36:32.854Z,8600.00
2022-09-06T11:37:32.900Z,8720.00
2022-09-06T11:38:32.845Z,8656.00
2022-09-06T11:40:34.811Z,8676.00
2022-09-06T11:41:33.806Z,8768.00
2022-09-06T11:42:32.826Z,8724.00
2022-09-06T11:43:32.868Z,8792.00
2022-09-06T11:44:32.821Z,8844.00
2022-09-06T11:45:32.812Z,8780.00
2022-09-06T11:46:32.793Z,8740.00
2022-09-06T11:47:32.749Z,8692.00
2022-09-06T11:48:32.758Z,8680.00
2022-09-06T11:49:32.761Z,8628.00
2022-09-06T11:50:32.841Z,8652.00
2022-09-06T11:51:32.737Z,8644.00
2022-09-06T11:52:32.770Z,8572.00
2022-09-06T11:53:32.771Z,8660.00
2022-09-06T11:54:32.745Z,8592.00
2022-09-06T11:55:32.706Z,8736.00
2022-09-06T11:56:32.718Z,8548.00
2022-09-06T11:57:32.695Z,8804.00
2022-09-06T11:58:33.708Z,8652.00
2022-09-06T11:59:32.740Z,8660.00
2022-09-06T12:00:32.739Z,8644.00
2022-09-06T12:01:32.669Z,8712.00
2022-09-06T12:02:32.805Z,8720.00
2022-09-06T12:04:34.720Z,8792.00
2022-09-06T12:05:32.726Z,8868.00
2022-09-06T12:06:32.656Z,8796.00
2022-09-06T12:07:32.696Z,9276.00
2022-09-06T12:08:32.681Z,8836.00
2022-09-06T12:09:32.706Z,8884.00
2022-09-06T12:10:32.718Z,8956.00
2022-09-06T12:11:32.614Z,9208.00
2022-09-06T12:12:32.692Z,9192.00
2022-09-06T12:13:32.662Z,9332.00
2022-09-06T12:14:32.604Z,9336.00
2022-09-06T12:15:32.627Z,9384.00
2022-09-06T12:16:32.603Z,9360.00
2022-09-06T12:17:32.592Z,9248.00
2022-09-06T12:18:32.582Z,9256.00
2022-09-06T12:19:32.559Z,9336.00
2022-09-06T12:20:32.575Z,9380.00
2022-09-06T12:21:32.553Z,9372.00
2022-09-06T12:22:32.561Z,9308.00
2022-09-06T12:23:32.545Z,9268.00
2022-09-06T12:24:32.565Z,9284.00
2022-09-06T12:25:32.516Z,9252.00
2022-09-06T12:26:32.649Z,9300.00
2022-09-06T12:27:32.573Z,9332.00
2022-09-06T12:28:32.500Z,9392.00
2022-09-06T12:29:32.536Z,9476.00
2022-09-06T12:30:32.864Z,9516.00
2022-09-06T12:31:32.781Z,9536.00
2022-09-06T12:32:36.626Z,9600.00
2022-09-06T12:33:33.545Z,9576.00
2022-09-06T12:34:35.265Z,9556.00
2022-09-06T12:36:35.498Z,9676.00
2022-09-06T12:37:32.450Z,9640.00
2022-09-06T12:38:32.449Z,9532.00
2022-09-06T12:39:32.494Z,9576.00
2022-09-06T12:40:32.505Z,9672.00
2022-09-06T12:41:32.579Z,9704.00
2022-09-06T12:42:32.426Z,9832.00
2022-09-06T12:43:32.467Z,9716.00
2022-09-06T12:44:32.395Z,9712.00
2022-09-06T12:45:32.395Z,9916.00
2022-09-06T12:46:32.426Z,6164.00
2022-09-06T12:47:32.384Z,9948.00
2022-09-06T12:48:32.473Z,10104.00
2022-09-06T12:49:32.366Z,5204.00
2022-09-06T12:50:33.263Z,5300.00
2022-09-06T12:51:32.354Z,7644.00
2022-09-06T12:52:32.417Z,9824.00
2022-09-06T12:53:32.432Z,5452.00
2022-09-06T12:54:32.378Z,5200.00
2022-09-06T12:55:32.343Z,5100.00
2022-09-06T12:56:32.335Z,6196.00
2022-09-06T12:57:32.386Z,5328.00
2022-09-06T12:58:32.359Z,5684.00
2022-09-06T12:59:32.398Z,5804.00
2022-09-06T13:00:32.379Z,9100.00
2022-09-06T13:01:32.406Z,9252.00
2022-09-06T13:02:32.427Z,10044.00
2022-09-06T13:03:32.255Z,10212.00
2022-09-06T13:04:32.304Z,10344.00
2022-09-06T13:05:32.258Z,10500.00
2022-09-06T13:06:32.258Z,10808.00
2022-09-06T13:07:32.296Z,9552.00
2022-09-06T13:08:32.233Z,6888.00
2022-09-06T13:09:32.307Z,10136.00
2022-09-06T13:10:32.245Z,6872.00
2022-09-06T13:11:32.280Z,11364.00
2022-09-06T13:12:32.246Z,11328.00
2022-09-06T13:13:32.210Z,11164.00
2022-09-06T13:14:32.285Z,6604.00
2022-09-06T13:15:32.224Z,6380.00
2022-09-06T13:16:32.221Z,6284.00
2022-09-06T13:17:32.219Z,6420.00
2022-09-06T13:18:32.288Z,6172.00
2022-09-06T13:19:32.305Z,6012.00
2022-09-06T13:20:32.204Z,5928.00
2022-09-06T13:21:32.153Z,5876.00
2022-09-06T13:22:32.205Z,5864.00
2022-09-06T13:23:32.195Z,5812.00